Time;durP1;ratioP1;P1;durP2;ratioP2;P2;SDS_P1;SDS_P2;PMS_P1;PMS_P2;Temp;Humidity;BMP_temperature;BMP_pressure;BME280_temperature;BME280_humidity;BME280_pressure;Samples;Min_cycle;Max_cycle;Signal;HPM_P1;HPM_P2
2022/09/21 00:01:32;;;;;;;12.63;10.47;;;9.90;99.90;;;;;;5114555;28;20214;-87
2022/09/21 00:04:02;;;;;;;17.10;10.50;;;9.80;99.90;;;;;;5114897;28;20189;-86
2022/09/21 00:06:31;;;;;;;16.47;10.47;;;9.90;99.90;;;;;;5114198;28;20216;-85
2022/09/21 00:08:58;;;;;;;14.20;10.30;;;9.90;99.90;;;;;;5114557;28;20188;-86
2022/09/21 00:11:27;;;;;;;20.47;10.53;;;9.80;99.90;;;;;;5114253;28;20692;-85
2022/09/21 00:13:55;;;;;;;13.67;9.90;;;9.80;99.90;;;;;;5113620;28;20695;-85
2022/09/21 00:16:23;;;;;;;17.90;13.57;;;9.80;99.90;;;;;;5113319;28;20425;-87
2022/09/21 00:18:52;;;;;;;14.63;10.87;;;9.90;99.90;;;;;;5114028;28;20262;-86
2022/09/21 00:21:22;;;;;;;12.40;10.13;;;10.10;99.90;;;;;;5113806;28;20185;-84
2022/09/21 00:23:50;;;;;;;14.87;10.17;;;10.10;99.90;;;;;;5113076;28;20207;-86
2022/09/21 00:26:19;;;;;;;10.73;9.10;;;9.90;99.90;;;;;;5113715;28;20211;-86
2022/09/21 00:28:47;;;;;;;11.53;9.53;;;9.80;99.90;;;;;;5113655;28;20207;-87
2022/09/21 00:31:16;;;;;;;14.07;9.17;;;9.80;99.90;;;;;;5114130;28;20542;-87
2022/09/21 00:33:46;;;;;;;11.13;8.83;;;9.80;99.90;;;;;;5113776;28;20753;-86
2022/09/21 00:36:15;;;;;;;12.97;9.50;;;9.70;99.90;;;;;;5113980;28;20194;-88
2022/09/21 00:38:48;;;;;;;11.93;9.60;;;9.70;99.90;;;;;;5113943;28;20196;-87
2022/09/21 00:41:15;;;;;;;10.60;8.80;;;9.70;99.90;;;;;;5113914;28;20195;-87
2022/09/21 00:43:46;;;;;;;13.00;9.90;;;9.70;99.90;;;;;;5113653;28;20195;-85
2022/09/21 00:46:22;;;;;;;12.33;9.90;;;9.70;99.90;;;;;;5114496;28;20203;-87
2022/09/21 00:48:52;;;;;;;14.23;10.37;;;9.70;99.90;;;;;;5113931;28;20632;-87
2022/09/21 00:51:19;;;;;;;12.63;10.30;;;9.70;99.90;;;;;;5114015;28;20201;-86
2022/09/21 00:53:54;;;;;;;13.83;10.77;;;9.70;99.90;;;;;;5113743;28;20268;-85
2022/09/21 00:56:22;;;;;;;16.07;10.33;;;9.80;99.90;;;;;;5113568;28;20234;-86
2022/09/21 00:58:52;;;;;;;11.60;9.93;;;9.70;99.90;;;;;;5111999;28;20592;-85
2022/09/21 01:01:19;;;;;;;13.77;11.13;;;9.60;99.90;;;;;;5113862;28;20192;-86
2022/09/21 01:03:47;;;;;;;15.33;10.53;;;9.60;99.90;;;;;;5112568;28;20547;-86
2022/09/21 01:06:19;;;;;;;12.33;9.83;;;9.60;99.90;;;;;;5113606;28;20674;-86
2022/09/21 01:08:52;;;;;;;20.87;10.67;;;9.60;99.90;;;;;;5113744;28;20224;-86
2022/09/21 01:11:29;;;;;;;15.53;9.67;;;9.60;99.90;;;;;;5113559;28;20193;-86
2022/09/21 01:14:14;;;;;;;19.47;9.90;;;9.50;99.90;;;;;;5112225;28;20223;-85
2022/09/21 01:16:47;;;;;;;12.37;9.40;;;9.40;99.90;;;;;;5113426;28;20674;-87
2022/09/21 01:19:33;;;;;;;13.07;9.37;;;9.40;99.90;;;;;;5113139;28;20674;-86
2022/09/21 01:22:08;;;;;;;13.20;9.03;;;9.40;99.90;;;;;;5113605;28;20223;-84
2022/09/21 01:24:48;;;;;;;11.93;8.87;;;9.40;99.90;;;;;;5113185;28;20252;-85
2022/09/21 01:27:42;;;;;;;10.17;8.97;;;9.40;99.90;;;;;;5113088;28;20232;-86
2022/09/21 01:30:14;;;;;;;12.07;9.00;;;9.40;99.90;;;;;;5112972;28;20227;-86
2022/09/21 01:32:44;;;;;;;12.73;9.40;;;9.30;99.90;;;;;;5113376;28;20430;-86
2022/09/21 01:35:17;;;;;;;11.77;9.20;;;9.40;99.90;;;;;;5115935;28;20200;-86
2022/09/21 01:37:49;;;;;;;13.27;9.43;;;9.30;99.90;;;;;;5117100;28;20257;-86
2022/09/21 01:40:20;;;;;;;11.37;8.67;;;9.30;99.90;;;;;;5117282;28;20204;-86
2022/09/21 01:42:50;;;;;;;10.67;8.97;;;9.20;99.90;;;;;;5117237;28;20189;-86
2022/09/21 01:45:24;;;;;;;15.57;9.10;;;9.30;99.90;;;;;;5117150;28;20189;-87
2022/09/21 01:47:51;;;;;;;10.17;8.67;;;9.20;99.90;;;;;;5117194;28;20228;-87
2022/09/21 01:50:20;;;;;;;9.30;8.37;;;9.20;99.90;;;;;;5117013;28;20201;-86
2022/09/21 01:52:52;;;;;;;11.17;9.03;;;9.20;99.90;;;;;;5116816;28;20196;-86
2022/09/21 01:55:27;;;;;;;10.67;9.00;;;9.20;99.90;;;;;;5116618;28;20189;-86
2022/09/21 01:57:59;;;;;;;13.37;9.00;;;9.20;99.90;;;;;;5116916;28;20239;-87
2022/09/21 02:00:31;;;;;;;10.90;9.13;;;9.20;99.90;;;;;;5116502;28;20196;-86
2022/09/21 02:03:05;;;;;;;11.17;8.60;;;9.20;99.90;;;;;;5116878;28;20196;-84
2022/09/21 02:05:32;;;;;;;12.53;8.90;;;9.20;99.90;;;;;;5116332;28;20197;-86
2022/09/21 02:08:01;;;;;;;10.80;8.70;;;9.20;99.90;;;;;;5116503;28;20217;-86
2022/09/21 02:10:38;;;;;;;14.93;8.93;;;9.20;99.90;;;;;;5116462;28;20205;-86
2022/09/21 02:13:06;;;;;;;10.37;8.57;;;9.20;99.90;;;;;;5116898;28;20568;-87
2022/09/21 02:15:50;;;;;;;10.83;8.93;;;9.10;99.90;;;;;;5117236;28;20209;-90
2022/09/21 02:18:34;;;;;;;10.23;8.27;;;9.10;99.90;;;;;;5116668;28;20202;-84
2022/09/21 02:21:07;;;;;;;9.30;8.00;;;9.10;99.90;;;;;;5116362;28;20211;-85
2022/09/21 02:23:42;;;;;;;9.17;8.27;;;9.10;99.90;;;;;;5116168;28;20205;-86
2022/09/21 02:26:14;;;;;;;12.23;8.17;;;9.10;99.90;;;;;;5116009;28;20200;-86
2022/09/21 02:28:50;;;;;;;10.37;7.77;;;9.00;99.90;;;;;;5116368;28;20232;-86
2022/09/21 02:31:30;;;;;;;10.07;8.70;;;8.90;99.90;;;;;;5116195;28;20210;-85
2022/09/21 02:34:03;;;;;;;11.97;8.60;;;8.90;99.90;;;;;;5116137;28;20189;-90
2022/09/21 02:36:36;;;;;;;11.93;8.43;;;8.80;99.90;;;;;;5115820;28;20207;-84
2022/09/21 02:39:09;;;;;;;11.33;8.60;;;8.80;99.90;;;;;;5115820;28;20648;-87
2022/09/21 02:41:40;;;;;;;11.30;8.13;;;8.70;99.90;;;;;;5115711;28;20214;-86
2022/09/21 02:44:11;;;;;;;11.50;7.67;;;8.70;99.90;;;;;;5115974;27;20640;-84
2022/09/21 02:46:49;;;;;;;10.40;8.17;;;8.70;99.90;;;;;;5115295;28;20664;-87
2022/09/21 02:49:20;;;;;;;10.30;8.47;;;8.70;99.90;;;;;;5115965;28;20223;-88
2022/09/21 02:51:50;;;;;;;11.88;10.27;;;8.60;99.90;;;;;;5115855;28;20417;-89
2022/09/21 02:54:21;;;;;;;10.57;8.30;;;8.70;99.90;;;;;;5116269;28;20215;-90
2022/09/21 02:56:50;;;;;;;9.63;8.00;;;8.70;99.90;;;;;;5116054;28;20228;-88
2022/09/21 02:59:17;;;;;;;10.47;8.13;;;8.70;99.90;;;;;;5116008;28;20208;-87
2022/09/21 03:01:45;;;;;;;8.87;8.00;;;8.70;99.90;;;;;;5115645;28;20203;-86
2022/09/21 03:04:14;;;;;;;11.73;8.30;;;8.70;99.90;;;;;;5115699;28;20196;-85
2022/09/21 03:06:41;;;;;;;12.47;7.63;;;8.70;99.90;;;;;;5115753;28;20224;-88
2022/09/21 03:09:08;;;;;;;15.13;7.77;;;8.60;99.90;;;;;;5114003;28;20241;-87
2022/09/21 03:11:36;;;;;;;13.10;8.17;;;8.50;99.90;;;;;;5115700;28;20189;-87
2022/09/21 03:14:07;;;;;;;10.70;8.10;;;8.60;99.90;;;;;;5114120;28;20642;-89
2022/09/21 03:16:34;;;;;;;9.77;8.20;;;8.60;99.90;;;;;;5115266;28;20563;-89
2022/09/21 03:19:05;;;;;;;8.63;7.80;;;8.50;99.90;;;;;;5115446;28;20196;-87
2022/09/21 03:21:32;;;;;;;8.63;7.73;;;8.50;99.90;;;;;;5115488;28;20185;-86
2022/09/21 03:24:00;;;;;;;8.07;7.27;;;8.60;99.90;;;;;;5115612;28;20189;-88
2022/09/21 03:26:35;;;;;;;8.57;7.70;;;8.60;99.90;;;;;;5115225;28;20204;-93
2022/09/21 03:29:05;;;;;;;9.03;8.13;;;8.70;99.90;;;;;;5115513;28;20238;-92
2022/09/21 03:31:33;;;;;;;10.87;8.33;;;8.70;99.90;;;;;;5116396;28;20649;-89
2022/09/21 03:34:04;;;;;;;12.17;8.60;;;8.70;99.90;;;;;;5115983;28;20192;-90
2022/09/21 03:36:31;;;;;;;8.60;7.70;;;8.70;99.90;;;;;;5115644;28;20205;-92
2022/09/21 03:39:01;;;;;;;9.10;7.77;;;8.80;99.90;;;;;;5115772;28;20235;-92
2022/09/21 03:41:28;;;;;;;9.17;8.00;;;8.80;99.90;;;;;;5115111;28;20195;-89
2022/09/21 03:43:54;;;;;;;8.63;7.33;;;8.70;99.90;;;;;;5114430;28;20334;-90
2022/09/21 03:46:21;;;;;;;8.40;7.43;;;8.70;99.90;;;;;;5114525;28;20196;-87
2022/09/21 03:48:48;;;;;;;8.20;7.33;;;8.60;99.90;;;;;;5114425;28;20235;-90
2022/09/21 03:51:17;;;;;;;10.43;7.67;;;8.60;99.90;;;;;;5114632;28;20196;-89
2022/09/21 03:53:44;;;;;;;8.43;6.67;;;8.60;99.90;;;;;;5114727;28;20203;-87
2022/09/21 03:56:11;;;;;;;8.67;7.40;;;8.70;99.90;;;;;;5114531;28;20231;-90
2022/09/21 03:58:38;;;;;;;11.57;7.83;;;8.60;99.90;;;;;;5114332;28;20219;-89
2022/09/21 04:01:05;;;;;;;10.13;7.50;;;8.70;99.90;;;;;;5114719;28;20217;-90
2022/09/21 04:03:32;;;;;;;12.50;7.67;;;8.60;99.90;;;;;;5114564;28;20204;-90
2022/09/21 04:06:08;;;;;;;10.03;7.83;;;8.70;99.90;;;;;;5114834;28;20200;-91
2022/09/21 04:08:38;;;;;;;11.23;7.47;;;8.70;99.90;;;;;;5114806;28;20714;-90
2022/09/21 04:11:10;;;;;;;10.23;7.83;;;8.60;99.90;;;;;;5115202;28;20192;-91
2022/09/21 04:13:37;;;;;;;8.10;6.90;;;8.60;99.90;;;;;;5114781;28;20193;-91
2022/09/21 04:16:11;;;;;;;13.67;7.07;;;8.50;99.90;;;;;;5115010;28;20211;-90
2022/09/21 04:18:39;;;;;;;8.57;7.50;;;8.50;99.90;;;;;;5115085;28;20200;-92
2022/09/21 04:21:07;;;;;;;11.27;7.47;;;8.40;99.90;;;;;;5114570;28;20203;-90
2022/09/21 04:23:35;;;;;;;7.97;6.97;;;8.40;99.90;;;;;;5114648;28;20195;-90
2022/09/21 04:26:05;;;;;;;9.90;7.73;;;8.50;99.90;;;;;;5114531;28;20188;-92
2022/09/21 04:28:32;;;;;;;9.97;7.03;;;8.40;99.90;;;;;;5114530;28;20223;-90
2022/09/21 04:31:02;;;;;;;8.67;7.17;;;8.40;99.90;;;;;;5114737;28;20636;-92
2022/09/21 04:33:35;;;;;;;10.17;7.63;;;8.50;99.90;;;;;;5115005;28;20188;-89
2022/09/21 04:36:05;;;;;;;9.63;7.80;;;8.50;99.90;;;;;;5128022;28;20185;-91
2022/09/21 04:38:32;;;;;;;8.33;7.50;;;8.50;99.90;;;;;;5130266;28;20206;-91
2022/09/21 04:40:59;;;;;;;7.57;6.87;;;8.50;99.90;;;;;;5128664;28;20200;-90
2022/09/21 04:43:27;;;;;;;8.63;7.27;;;8.40;99.90;;;;;;5130553;28;20207;-91
2022/09/21 04:45:54;;;;;;;9.67;7.63;;;8.50;99.90;;;;;;5136267;27;20191;-91
2022/09/21 04:48:21;;;;;;;10.33;7.37;;;8.50;99.90;;;;;;5139363;28;20222;-90
2022/09/21 04:50:49;;;;;;;13.33;7.33;;;8.50;99.90;;;;;;5124281;28;20611;-87
2022/09/21 04:53:22;;;;;;;11.40;7.63;;;8.50;99.90;;;;;;5129352;28;20199;-89
2022/09/21 04:55:55;;;;;;;9.27;7.70;;;8.40;99.90;;;;;;5126820;28;20219;-88
2022/09/21 04:58:29;;;;;;;10.10;7.10;;;8.40;99.90;;;;;;5124703;28;20208;-86
2022/09/21 05:00:57;;;;;;;9.50;7.43;;;8.50;99.90;;;;;;5122966;28;20547;-87
2022/09/21 05:03:26;;;;;;;12.03;10.03;;;8.50;99.90;;;;;;5115811;28;20458;-88
2022/09/21 05:05:54;;;;;;;12.33;8.20;;;8.60;99.90;;;;;;5114476;28;20208;-88
2022/09/21 05:11:04;;;;;;;13.73;7.67;;;8.60;99.90;;;;;;5118080;28;20249;-87
2022/09/21 05:13:33;;;;;;;12.37;8.10;;;8.60;99.90;;;;;;5116833;28;20200;-88
2022/09/21 05:16:02;;;;;;;28.37;9.07;;;8.50;99.90;;;;;;5118279;28;20193;-86
2022/09/21 05:18:29;;;;;;;11.80;7.60;;;8.40;99.90;;;;;;5117572;28;20204;-88
2022/09/21 05:20:57;;;;;;;11.27;8.07;;;8.40;99.90;;;;;;5118054;28;20196;-87
2022/09/21 05:23:24;;;;;;;10.47;7.67;;;8.30;99.90;;;;;;5117694;28;20201;-86
2022/09/21 05:25:52;;;;;;;10.00;7.63;;;8.40;99.90;;;;;;5117480;28;20223;-87
2022/09/21 05:28:19;;;;;;;9.53;7.77;;;8.40;99.90;;;;;;5117216;28;20231;-86
2022/09/21 05:30:58;;;;;;;15.70;10.93;;;8.30;99.90;;;;;;5116832;28;20896;-86
2022/09/21 05:33:28;;;;;;;13.97;9.13;;;8.30;99.90;;;;;;5117303;28;20211;-87
2022/09/21 05:36:03;;;;;;;11.23;8.93;;;8.10;99.90;;;;;;5117164;28;20699;-86
2022/09/21 05:38:32;;;;;;;13.77;8.07;;;8.20;99.90;;;;;;5120574;27;20194;-87
2022/09/21 05:40:59;;;;;;;13.63;7.77;;;8.20;99.90;;;;;;5129084;27;20206;-87
2022/09/21 05:43:27;;;;;;;9.23;7.23;;;8.30;99.90;;;;;;5128809;27;20188;-86
2022/09/21 05:46:02;;;;;;;8.63;7.60;;;8.20;99.90;;;;;;5118243;27;20196;-88
2022/09/21 05:48:36;;;;;;;14.53;8.47;;;8.30;99.90;;;;;;5125824;27;20693;-89
2022/09/21 05:51:09;;;;;;;12.80;8.17;;;8.30;99.90;;;;;;5123116;27;20663;-92
2022/09/21 05:53:45;;;;;;;16.33;8.33;;;8.30;99.90;;;;;;5120102;27;20207;-87
2022/09/21 05:56:22;;;;;;;13.83;8.37;;;8.40;99.90;;;;;;5120309;27;20212;-88
2022/09/21 05:58:58;;;;;;;13.75;10.50;;;8.40;99.90;;;;;;5121587;27;20442;-87
2022/09/21 06:01:43;;;;;;;14.00;9.13;;;8.60;99.90;;;;;;5130606;27;20205;-90
2022/09/21 06:04:13;;;;;;;13.60;8.53;;;8.50;99.90;;;;;;5123719;27;20200;-90
2022/09/21 06:06:40;;;;;;;15.67;8.47;;;8.40;99.90;;;;;;5122964;27;20644;-91
2022/09/21 06:09:07;;;;;;;11.53;8.83;;;8.40;99.90;;;;;;5131024;27;20228;-88
2022/09/21 06:11:36;;;;;;;16.23;9.03;;;8.40;99.90;;;;;;5128518;27;20647;-91
2022/09/21 06:14:06;;;;;;;15.10;8.53;;;8.40;99.90;;;;;;5123118;27;20207;-92
2022/09/21 06:16:42;;;;;;;21.87;8.80;;;8.50;99.90;;;;;;5133892;27;20192;-92
2022/09/21 06:19:14;;;;;;;15.30;8.37;;;8.50;99.90;;;;;;5128315;27;20214;-92
2022/09/21 06:21:47;;;;;;;16.93;8.73;;;8.50;99.90;;;;;;5116761;28;20196;-91
2022/09/21 06:24:14;;;;;;;25.13;9.80;;;8.60;99.90;;;;;;5123056;27;20188;-88
2022/09/21 06:26:41;;;;;;;17.98;11.18;;;8.60;99.90;;;;;;5136784;27;20430;-89
2022/09/21 06:29:14;;;;;;;18.73;9.40;;;8.70;99.90;;;;;;5137140;27;20223;-88
2022/09/21 06:31:42;;;;;;;12.97;9.00;;;8.80;99.90;;;;;;5137176;27;20200;-87
2022/09/21 06:34:09;;;;;;;26.80;9.47;;;8.70;99.90;;;;;;5136673;27;20207;-87
2022/09/21 06:36:36;;;;;;;18.40;9.87;;;8.80;99.90;;;;;;5136629;27;20207;-86
2022/09/21 06:39:08;;;;;;;25.73;9.80;;;8.90;99.90;;;;;;5137015;27;20226;-89
2022/09/21 06:41:37;;;;;;;16.13;8.90;;;8.90;99.90;;;;;;5136449;27;20195;-90
2022/09/21 06:44:06;;;;;;;15.37;9.63;;;9.00;99.90;;;;;;5136661;27;20203;-87
2022/09/21 06:46:33;;;;;;;19.73;11.03;;;8.90;99.90;;;;;;5136146;27;20206;-87
2022/09/21 06:49:01;;;;;;;14.33;9.63;;;8.90;99.90;;;;;;5132967;27;20227;-91
2022/09/21 06:51:28;;;;;;;15.70;9.10;;;9.20;99.90;;;;;;5121791;27;20189;-89
2022/09/21 06:53:56;;;;;;;17.30;9.80;;;9.30;99.90;;;;;;5116327;28;20200;-91
2022/09/21 06:56:23;;;;;;;14.73;8.87;;;9.60;99.90;;;;;;5116280;28;20225;-90
2022/09/21 06:58:51;;;;;;;15.30;8.60;;;9.70;99.90;;;;;;5115760;28;20219;-89
2022/09/21 07:01:19;;;;;;;14.53;8.90;;;9.80;99.90;;;;;;5115556;28;20199;-88
2022/09/21 07:03:49;;;;;;;23.00;10.07;;;9.80;99.90;;;;;;5115534;28;20649;-89
2022/09/21 07:06:19;;;;;;;15.30;10.63;;;9.80;99.90;;;;;;5115761;28;20200;-88
2022/09/21 07:08:46;;;;;;;21.97;10.90;;;9.90;99.90;;;;;;5115764;28;20642;-88
2022/09/21 07:11:13;;;;;;;18.43;10.53;;;10.00;99.90;;;;;;5115816;28;20200;-87
2022/09/21 07:13:41;;;;;;;19.57;11.47;;;10.10;99.90;;;;;;5115770;28;20212;-86
2022/09/21 07:16:09;;;;;;;20.90;10.90;;;10.10;99.90;;;;;;5115951;28;20212;-86
2022/09/21 07:18:38;;;;;;;20.63;11.07;;;10.20;99.90;;;;;;5115500;28;20215;-86
2022/09/21 07:21:06;;;;;;;26.10;11.77;;;10.30;99.90;;;;;;5123539;27;20640;-85
2022/09/21 07:23:34;;;;;;;20.80;11.47;;;10.40;99.90;;;;;;5132303;27;20579;-85
2022/09/21 07:26:02;;;;;;;17.30;11.73;;;10.50;99.90;;;;;;5135655;27;20654;-87
2022/09/21 07:28:29;;;;;;;27.03;12.50;;;10.60;99.90;;;;;;5135245;27;20689;-86
2022/09/21 07:30:56;;;;;;;19.17;12.83;;;10.70;99.90;;;;;;5135798;27;20203;-86
2022/09/21 07:33:24;;;;;;;25.17;13.80;;;10.80;99.90;;;;;;5135283;27;20207;-86
2022/09/21 07:35:52;;;;;;;32.47;13.67;;;10.90;99.90;;;;;;5135979;27;20204;-86
2022/09/21 07:38:19;;;;;;;31.87;13.13;;;11.00;99.90;;;;;;5135918;27;20205;-87
2022/09/21 07:40:47;;;;;;;17.27;12.53;;;11.00;99.90;;;;;;5135886;27;20214;-86
2022/09/21 07:43:14;;;;;;;19.60;13.13;;;10.90;99.90;;;;;;5134477;27;20195;-86
2022/09/21 07:45:42;;;;;;;14.97;12.93;;;11.00;99.90;;;;;;5128548;27;20231;-85
2022/09/21 07:48:10;;;;;;;27.03;14.00;;;11.10;99.90;;;;;;5129018;27;20659;-86
2022/09/21 07:50:37;;;;;;;19.70;12.83;;;11.30;99.90;;;;;;5135425;27;20211;-85
2022/09/21 07:53:04;;;;;;;21.23;14.47;;;11.50;99.90;;;;;;5135548;27;20193;-86
2022/09/21 07:55:33;;;;;;;19.47;13.40;;;11.40;99.90;;;;;;5135493;27;20644;-88
2022/09/21 08:00:48;;;;;;;19.10;14.37;;;11.70;99.90;;;;;;5115400;28;20193;-88
2022/09/21 08:03:21;;;;;;;16.70;13.27;;;11.90;99.90;;;;;;5129502;27;20237;-87
2022/09/21 08:05:51;;;;;;;19.87;14.83;;;11.90;99.90;;;;;;5135287;27;20625;-88
2022/09/21 08:08:19;;;;;;;19.27;13.57;;;12.00;99.90;;;;;;5135682;27;20198;-89
2022/09/21 08:10:47;;;;;;;20.03;13.73;;;12.20;99.90;;;;;;5135330;27;20226;-89
2022/09/21 08:13:17;;;;;;;18.43;13.80;;;12.30;99.90;;;;;;5135567;27;20194;-89
2022/09/21 08:15:46;;;;;;;22.53;13.70;;;12.50;99.90;;;;;;5135806;27;20194;-85
2022/09/21 08:18:12;;;;;;;19.80;14.23;;;12.70;99.90;;;;;;5135460;27;20218;-83
2022/09/21 08:20:39;;;;;;;20.53;13.97;;;12.70;99.90;;;;;;5135660;27;20198;-82
2022/09/21 08:23:13;;;;;;;23.53;13.03;;;12.50;99.90;;;;;;5139652;27;20245;-90
2022/09/21 08:25:40;;;;;;;16.30;13.17;;;12.40;99.90;;;;;;5137453;27;20211;-86
2022/09/21 08:28:06;;;;;;;17.43;12.57;;;12.20;99.90;;;;;;5134606;27;20213;-87
2022/09/21 08:30:35;;;;;;;17.13;12.00;;;12.50;99.90;;;;;;5134528;27;20239;-86
2022/09/21 08:33:02;;;;;;;15.70;12.60;;;12.80;99.90;;;;;;5126650;27;20192;-85
2022/09/21 08:35:29;;;;;;;21.83;11.33;;;13.10;99.90;;;;;;5120827;27;20228;-86
2022/09/21 08:37:55;;;;;;;17.20;11.83;;;13.20;99.90;;;;;;5134288;27;20202;-86
2022/09/21 08:40:22;;;;;;;14.27;11.03;;;13.00;99.90;;;;;;5134258;27;20201;-86
2022/09/21 08:42:57;;;;;;;12.60;10.03;;;13.00;99.90;;;;;;5127514;27;20192;-86
2022/09/21 08:45:29;;;;;;;17.10;10.55;;;13.30;99.90;;;;;;5121004;28;20445;-86
2022/09/21 08:48:02;;;;;;;31.17;10.93;;;13.50;99.90;;;;;;5114453;28;20219;-90
2022/09/21 08:50:34;;;;;;;13.33;10.43;;;13.80;99.90;;;;;;5114525;28;20589;-88
2022/09/21 08:53:06;;;;;;;22.03;10.63;;;13.80;99.90;;;;;;5114285;28;20209;-86
2022/09/21 08:55:33;;;;;;;19.93;9.83;;;13.80;99.90;;;;;;5115413;28;20648;-88
2022/09/21 08:58:00;;;;;;;25.17;11.13;;;14.00;99.90;;;;;;5123249;28;20204;-87
2022/09/21 09:00:34;;;;;;;13.67;8.20;;;14.10;99.90;;;;;;5130111;28;20647;-84
2022/09/21 09:03:35;;;;;;;11.43;7.83;;;14.40;99.90;;;;;;5126470;28;20636;-87
2022/09/21 09:06:10;;;;;;;10.27;8.53;;;14.60;99.90;;;;;;5119668;28;20291;-86
2022/09/21 09:08:58;;;;;;;18.70;9.27;;;14.70;99.90;;;;;;5123875;28;20287;-86
2022/09/21 09:11:43;;;;;;;16.43;8.80;;;14.90;99.90;;;;;;5113066;28;20201;-84
2022/09/21 09:14:23;;;;;;;13.82;10.15;;;14.80;99.90;;;;;;5112721;28;20495;-84
2022/09/21 09:17:03;;;;;;;12.70;7.87;;;14.90;99.90;;;;;;5113836;28;20565;-82
2022/09/21 09:19:39;;;;;;;10.27;6.77;;;15.10;99.90;;;;;;5113754;28;20193;-83
2022/09/21 09:22:12;;;;;;;11.93;6.87;;;15.00;99.90;;;;;;5113976;28;20189;-84
2022/09/21 09:24:43;;;;;;;7.43;5.67;;;15.00;99.90;;;;;;5113105;28;20213;-83
2022/09/21 09:27:17;;;;;;;9.77;6.80;;;15.10;99.90;;;;;;5113783;28;20225;-83
2022/09/21 09:29:52;;;;;;;6.50;5.70;;;15.20;99.90;;;;;;5113781;28;20223;-85
2022/09/21 09:32:21;;;;;;;7.73;6.63;;;15.40;99.90;;;;;;5114693;28;20202;-86
2022/09/21 09:34:55;;;;;;;11.83;6.27;;;15.40;99.90;;;;;;5116073;28;20200;-84
2022/09/21 09:37:30;;;;;;;17.33;5.97;;;15.50;99.90;;;;;;5113958;28;20302;-85
2022/09/21 09:40:00;;;;;;;5.97;5.37;;;15.60;99.90;;;;;;5112166;28;20195;-84
2022/09/21 09:42:41;;;;;;;21.53;6.97;;;15.70;99.90;;;;;;5112574;28;20638;-84
2022/09/21 09:45:40;;;;;;;5.63;4.70;;;15.70;99.90;;;;;;5113008;28;20640;-85
2022/09/21 09:48:20;;;;;;;13.87;4.63;;;15.70;99.90;;;;;;5113362;28;20196;-83
2022/09/21 09:50:49;;;;;;;13.57;4.20;;;15.70;99.90;;;;;;5113015;28;20238;-84
2022/09/21 09:53:18;;;;;;;5.87;3.37;;;15.50;99.90;;;;;;5113439;28;20214;-84
2022/09/21 09:55:48;;;;;;;9.17;3.90;;;15.50;99.90;;;;;;5114737;28;20744;-84
2022/09/21 09:58:19;;;;;;;4.57;3.87;;;15.80;99.90;;;;;;5117242;28;20654;-84
2022/09/21 10:00:50;;;;;;;8.57;4.10;;;15.90;99.90;;;;;;5116990;28;20207;-84
2022/09/21 10:03:19;;;;;;;8.87;3.60;;;16.00;99.90;;;;;;5116844;28;20562;-85
2022/09/21 10:05:46;;;;;;;9.60;3.67;;;15.80;99.90;;;;;;5116862;28;20227;-84
2022/09/21 10:08:43;;;;;;;7.13;4.27;;;15.80;99.90;;;;;;5116405;28;20570;-85
2022/09/21 10:11:12;;;;;;;6.70;3.78;;;15.80;99.90;;;;;;5113475;28;20848;-84
2022/09/21 10:13:40;;;;;;;6.37;3.50;;;16.00;99.90;;;;;;5116678;28;20215;-84
2022/09/21 10:16:13;;;;;;;7.57;3.13;;;16.10;99.90;;;;;;5116542;28;20211;-84
2022/09/21 10:18:45;;;;;;;8.23;3.00;;;16.40;99.90;;;;;;5116325;28;20636;-84
2022/09/21 10:21:18;;;;;;;9.87;2.53;;;16.40;99.90;;;;;;5116396;28;20197;-84
2022/09/21 10:23:49;;;;;;;12.63;4.10;;;16.40;99.90;;;;;;5116159;28;20646;-84
2022/09/21 10:26:18;;;;;;;6.70;2.40;;;16.50;99.90;;;;;;5116542;28;20213;-85
2022/09/21 10:29:26;;;;;;;7.57;2.10;;;16.60;99.90;;;;;;5116310;28;20316;-85
2022/09/21 10:31:58;;;;;;;3.67;2.23;;;16.40;99.90;;;;;;5117158;28;20212;-86
2022/09/21 10:34:26;;;;;;;4.43;2.77;;;16.10;99.90;;;;;;5116213;28;20203;-86
2022/09/21 10:36:55;;;;;;;8.93;2.90;;;16.40;99.90;;;;;;5119559;27;20216;-86
2022/09/21 10:39:28;;;;;;;11.60;2.53;;;16.60;99.90;;;;;;5132807;27;20705;-84
2022/09/21 10:42:04;;;;;;;5.53;2.00;;;16.60;99.90;;;;;;5126391;27;20211;-87
2022/09/21 10:44:41;;;;;;;6.47;1.83;;;16.90;99.90;;;;;;5122854;27;20198;-88
2022/09/21 10:47:19;;;;;;;4.90;2.33;;;17.00;99.90;;;;;;5131372;27;20303;-85
2022/09/21 10:49:50;;;;;;;3.40;2.23;;;16.70;99.90;;;;;;5116624;28;20258;-86
2022/09/21 10:52:20;;;;;;;3.03;1.67;;;16.70;99.90;;;;;;5116440;28;20217;-86
2022/09/21 10:54:55;;;;;;;6.73;1.67;;;16.90;99.90;;;;;;5116266;28;20209;-85
2022/09/21 10:57:24;;;;;;;6.27;2.10;;;17.10;99.90;;;;;;5115990;28;20269;-84
2022/09/21 10:59:51;;;;;;;13.10;2.27;;;17.10;99.90;;;;;;5115722;28;20210;-81
2022/09/21 11:02:30;;;;;;;7.10;2.00;;;17.20;99.90;;;;;;5115773;28;20586;-86
2022/09/21 11:05:00;;;;;;;4.47;1.37;;;17.50;99.90;;;;;;5116124;28;20334;-87
2022/09/21 11:07:33;;;;;;;5.85;1.85;;;17.70;99.90;;;;;;5114462;28;20440;-83
2022/09/21 11:10:12;;;;;;;4.20;1.17;;;18.10;99.90;;;;;;5114888;28;20234;-82
2022/09/21 11:12:49;;;;;;;4.47;1.57;;;18.30;99.90;;;;;;5115116;28;20200;-83
2022/09/21 11:15:29;;;;;;;11.67;2.80;;;18.50;99.90;;;;;;5118543;27;20559;-80
2022/09/21 11:18:04;;;;;;;14.23;3.20;;;18.50;99.90;;;;;;5124091;27;20266;-84
2022/09/21 11:20:48;;;;;;;57.97;5.77;;;18.20;99.90;;;;;;5115006;28;20207;-81
2022/09/21 11:23:39;;;;;;;8.93;1.90;;;18.40;99.90;;;;;;5115190;28;20293;-86
2022/09/21 11:26:12;;;;;;;3.60;1.53;;;18.50;99.90;;;;;;5117692;27;20223;-85
2022/09/21 11:28:50;;;;;;;7.23;2.40;;;18.20;99.90;;;;;;5121146;27;20201;-84
2022/09/21 11:31:36;;;;;;;3.20;1.53;;;18.30;99.90;;;;;;5117761;27;20711;-86
2022/09/21 11:34:18;;;;;;;3.60;1.07;;;18.40;99.90;;;;;;5114448;28;20196;-84
2022/09/21 11:36:55;;;;;;;14.13;2.43;;;18.10;99.90;;;;;;5114017;28;20746;-81
2022/09/21 11:39:36;;;;;;;7.33;1.50;;;17.80;99.90;;;;;;5114325;28;20686;-81
2022/09/21 11:42:17;;;;;;;5.23;2.00;;;17.90;99.90;;;;;;5114189;28;20208;-81
2022/09/21 11:44:52;;;;;;;3.53;2.10;;;17.60;99.90;;;;;;5114229;28;20621;-82
2022/09/21 11:47:37;;;;;;;251.53;23.27;;;17.30;99.90;;;;;;5120623;27;20195;-81
2022/09/21 11:50:21;;;;;;;16.93;2.77;;;17.10;99.90;;;;;;5124257;27;20679;-81
2022/09/21 11:52:59;;;;;;;13.17;2.40;;;17.40;99.90;;;;;;5124973;27;20203;-84
2022/09/21 11:55:43;;;;;;;15.33;2.87;;;17.30;99.90;;;;;;5135611;27;20219;-82
2022/09/21 11:58:20;;;;;;;7.60;2.17;;;17.60;99.90;;;;;;5134997;27;20203;-84
2022/09/21 12:00:57;;;;;;;5.23;1.30;;;17.70;99.90;;;;;;5127458;27;20191;-86
2022/09/21 12:03:52;;;;;;;11.68;2.10;;;17.70;99.90;;;;;;5128099;27;20431;-83
2022/09/21 12:06:34;;;;;;;7.93;1.60;;;18.10;99.90;;;;;;5121498;27;20196;-84
2022/09/21 12:09:30;;;;;;;9.97;2.27;;;18.30;99.90;;;;;;5126157;27;20570;-84
2022/09/21 12:12:08;;;;;;;6.47;1.90;;;18.40;99.90;;;;;;5133886;27;20230;-82
2022/09/21 12:14:43;;;;;;;7.00;1.80;;;18.10;99.90;;;;;;5141440;27;20188;-85
2022/09/21 12:17:24;;;;;;;3.47;1.50;;;18.10;99.90;;;;;;5150108;27;20195;-83
2022/09/21 12:20:01;;;;;;;5.47;1.30;;;18.20;99.90;;;;;;5137615;27;20188;-82
2022/09/21 12:22:33;;;;;;;7.60;1.73;;;18.10;99.90;;;;;;5152225;27;20271;-88
2022/09/21 12:25:15;;;;;;;8.33;1.80;;;18.10;99.90;;;;;;5151878;27;20570;-87
2022/09/21 12:27:48;;;;;;;18.70;2.03;;;17.80;99.90;;;;;;5144537;27;20673;-87
2022/09/21 12:30:19;;;;;;;15.90;1.40;;;17.60;99.90;;;;;;5136708;27;20281;-86
2022/09/21 12:32:52;;;;;;;13.45;2.50;;;17.70;99.90;;;;;;5135329;27;20515;-88
2022/09/21 12:35:26;;;;;;;5.33;1.27;;;18.10;99.90;;;;;;5135453;27;20253;-88
2022/09/21 12:37:59;;;;;;;4.77;1.20;;;18.20;99.90;;;;;;5135932;27;20666;-87
2022/09/21 12:40:33;;;;;;;90.60;6.20;;;17.90;99.90;;;;;;5135690;27;20231;-87
2022/09/21 12:43:08;;;;;;;5.37;1.50;;;18.00;99.90;;;;;;5133755;27;20203;-85
2022/09/21 12:45:41;;;;;;;129.73;14.27;;;18.10;99.90;;;;;;5133989;27;20197;-85
2022/09/21 12:48:18;;;;;;;7.57;1.20;;;18.00;99.90;;;;;;5133437;27;20657;-86
2022/09/21 12:50:48;;;;;;;6.03;1.83;;;18.00;99.90;;;;;;5136025;28;20318;-86
2022/09/21 12:53:19;;;;;;;6.17;1.27;;;18.30;99.90;;;;;;5135707;28;20556;-85
2022/09/21 12:55:54;;;;;;;4.70;1.20;;;18.70;99.90;;;;;;5135202;28;20216;-84
2022/09/21 12:58:47;;;;;;;6.37;1.37;;;18.70;99.90;;;;;;5134470;28;20289;-83
2022/09/21 13:01:25;;;;;;;4.93;1.52;;;18.60;99.90;;;;;;5133902;28;20450;-84
2022/09/21 13:04:05;;;;;;;5.47;1.43;;;18.70;99.90;;;;;;5134073;27;20619;-82
2022/09/21 13:06:57;;;;;;;1.83;1.20;;;18.40;99.90;;;;;;5134505;28;20207;-84
2022/09/21 13:09:25;;;;;;;2.00;1.20;;;18.20;99.90;;;;;;5120767;28;20207;-83
2022/09/21 13:11:55;;;;;;;3.87;1.03;;;18.60;99.90;;;;;;5134026;28;20216;-83
2022/09/21 13:14:24;;;;;;;2.23;0.80;;;18.80;99.90;;;;;;5133845;28;20204;-83